Flight Track Log - Related Links

Times and Time Zones

All times are in EDT time to prevent confusion due to time zone crossing. See the KAL1931 flight status page for this flight to view local times or setup timezone preferences in your user account.


Time Position Orientation Groundspeed Altitude Reporting Facility
EDT Latitude Longitude Course Direction KTS MPH feet Rate Location/Type
Sat 11:49:00 PM 34.6097 127.4178 215° Southwest  Level Estimated
Sat 11:50:00 PM 34.5522 127.3686 215° Southwest  Level Estimated
Sat 11:51:00 PM 34.4946 127.3194 215° Southwest  Level Estimated
Sat 11:52:00 PM 34.4370 127.2703 215° Southwest  Level Estimated
Sat 11:53:00 PM 34.3793 127.2213 215° Southwest  Level Estimated
Sat 11:54:00 PM 34.3217 127.1724 215° Southwest  Level Estimated
Sat 11:55:00 PM 34.2775 127.1349 215° Southwest  Level Estimated
Sat 11:56:00 PM 34.2332 127.0974 215° Southwest  Level Estimated
Sat 11:57:00 PM 34.1890 127.0600 215° Southwest  Level Estimated
Sat 11:58:00 PM 34.1448 127.0227 215° Southwest  Level Estimated
Sat 11:59:00 PM 34.1005 126.9854 215° Southwest  Level Estimated
Sun 12:00:00 AM 34.0562 126.9481 215° Southwest  Level Estimated
Sun 12:01:00 AM 34.0120 126.9108 215° Southwest  Level Estimated
Sun 12:02:00 AM 33.9677 126.8736 215° Southwest  Level Estimated
Sun 12:03:00 AM 33.9234 126.8364 215° Southwest  Level Estimated
Sun 12:04:00 AM 33.8791 126.7993 215° Southwest  Level Estimated
Sun 12:05:00 AM 33.8347 126.7622 215° Southwest  Level Estimated
Sun 12:06:00 AM 33.7904 126.7252 215° Southwest  Level Estimated
Sun 12:07:00 AM 33.7460 126.6882 215° Southwest  Level Estimated
Sun 12:08:00 AM 33.7017 126.6512 215° Southwest  Level Estimated
Sun 12:09:00 AM 33.6573 126.6143 215° Southwest  Level Estimated
Sun 12:10:00 AM 33.6129 126.5773 215° Southwest  Level Estimated
Sun 12:11:00 AM 33.5685 126.5405 215° Southwest  Level Estimated
Sun 12:12:00 AM 33.5241 126.5037 215° Southwest  Level Estimated
Sun 12:13:00 AM 33.5113 126.4930 215° Southwest  Level Estimated
Sun 12:14:00 AM 33.5113 126.4930 203° Southwest  Level Estimated
Sun 12:15:00 AM 33.5113 126.4930 203° Southwest  Level Estimated
Sun 12:16:00 AM 33.5113 126.4930 203° Southwest  Level Estimated
Sun 12:17:00 AM 33.5113 126.4930 203° Southwest  Level Estimated
Sun 12:18:00 AM 33.5113 126.4930 203° Southwest  Level Estimated
Sun 12:19:00 AM 33.5113 126.4930 203° Southwest  Level Estimated

Login

Don't have an account? Register now (free) for customized features, flight alerts, and more!